Time;durP1;ratioP1;P1;durP2;ratioP2;P2;SDS_P1;SDS_P2;PMS_P1;PMS_P2;Temp;Humidity;BMP_temperature;BMP_pressure;BME280_temperature;BME280_humidity;BME280_pressure;Samples;Min_cycle;Max_cycle;Signal;HPM_P1;HPM_P2
2021/09/25 00:01:52;;;;;;;11.32;5.82;;;;;;;9.53;100.00;99172.00;5051502;28;20547;-80
2021/09/25 00:04:19;;;;;;;9.07;5.65;;;;;;;9.38;100.00;99140.19;5051867;28;20052;-80
2021/09/25 00:06:47;;;;;;;10.60;5.60;;;;;;;9.45;100.00;99169.31;5051388;28;20041;-80
2021/09/25 00:09:14;;;;;;;8.95;5.30;;;;;;;9.48;100.00;99155.38;5051961;28;20130;-80
2021/09/25 00:11:41;;;;;;;7.97;5.90;;;;;;;9.63;100.00;99164.44;5051851;28;20110;-80
2021/09/25 00:14:08;;;;;;;10.43;5.72;;;;;;;9.70;99.85;99151.84;5050228;28;20048;-80
2021/09/25 00:16:35;;;;;;;9.15;6.55;;;;;;;9.69;99.02;99143.91;5051256;28;20060;-80
2021/09/25 00:19:02;;;;;;;10.02;5.32;;;;;;;9.44;99.79;99140.47;5051684;28;20408;-81
2021/09/25 00:21:30;;;;;;;9.15;5.68;;;;;;;9.43;100.00;99155.94;5052066;28;20552;-80
2021/09/25 00:23:58;;;;;;;14.85;6.15;;;;;;;9.41;100.00;99147.13;5051813;28;20053;-80
2021/09/25 00:26:26;;;;;;;9.15;5.90;;;;;;;9.33;100.00;99139.00;5051666;28;20488;-80
2021/09/25 00:28:54;;;;;;;7.88;5.43;;;;;;;9.36;100.00;99141.38;5051656;28;20299;-80
2021/09/25 00:31:21;;;;;;;9.00;5.07;;;;;;;9.35;100.00;99140.53;5050543;28;20052;-80
2021/09/25 00:33:48;;;;;;;8.40;5.32;;;;;;;9.33;100.00;99131.75;5051767;28;20049;-81
2021/09/25 00:36:15;;;;;;;9.10;4.72;;;;;;;9.51;99.24;99149.59;5050693;28;20045;-80
2021/09/25 00:38:41;;;;;;;6.85;5.15;;;;;;;9.36;99.35;99141.38;5051795;28;20052;-80
2021/09/25 00:41:10;;;;;;;7.45;4.78;;;;;;;9.15;99.54;99133.84;5051272;28;20048;-80
2021/09/25 00:43:37;;;;;;;7.32;4.85;;;;;;;9.19;99.55;99146.88;5051573;28;20059;-80
2021/09/25 00:46:04;;;;;;;8.52;5.70;;;;;;;9.20;99.58;99135.00;5051505;28;20136;-80
2021/09/25 00:48:31;;;;;;;9.40;5.85;;;;;;;9.14;100.00;99146.56;5035246;28;20447;-80
2021/09/25 00:50:58;;;;;;;6.68;4.60;;;;;;;8.99;99.75;99146.47;5051676;28;20049;-80
2021/09/25 00:53:25;;;;;;;28.15;5.75;;;;;;;9.18;99.85;99160.63;5051313;28;20072;-80
2021/09/25 00:55:51;;;;;;;9.00;5.18;;;;;;;9.10;99.84;99149.81;5051349;28;20056;-80
2021/09/25 00:58:20;;;;;;;11.73;5.15;;;;;;;9.13;99.66;99168.44;5051288;28;20291;-80
2021/09/25 01:00:47;;;;;;;8.05;4.88;;;;;;;9.15;99.27;99145.56;5051390;28;20140;-80
2021/09/25 01:03:14;;;;;;;6.13;4.45;;;;;;;9.14;99.11;99146.56;5051171;28;20519;-80
2021/09/25 01:05:44;;;;;;;8.85;4.60;;;;;;;8.94;99.71;99154.28;5051394;28;20053;-80
2021/09/25 01:08:11;;;;;;;9.18;5.30;;;;;;;8.83;99.83;99144.63;5050546;28;20110;-80
2021/09/25 01:10:38;;;;;;;7.47;5.03;;;;;;;9.08;99.47;99160.84;5051075;28;20508;-80
2021/09/25 01:13:05;;;;;;;8.38;5.20;;;;;;;9.00;99.67;99137.31;5051614;28;20049;-80
2021/09/25 01:15:34;;;;;;;5.72;4.35;;;;;;;8.92;99.87;99155.47;5050702;28;20064;-80
2021/09/25 01:18:01;;;;;;;9.32;5.13;;;;;;;8.78;99.43;99136.19;5051578;28;20122;-80
2021/09/25 01:20:27;;;;;;;10.02;5.72;;;;;;;8.77;100.00;99147.22;5054640;28;20048;-80
2021/09/25 01:22:56;;;;;;;8.23;5.07;;;;;;;8.73;99.94;99138.59;5053567;28;20056;-80
2021/09/25 01:25:22;;;;;;;8.63;5.35;;;;;;;8.76;99.66;99161.78;5054079;28;20060;-80
2021/09/25 01:27:50;;;;;;;8.88;5.32;;;;;;;8.96;98.99;99163.06;5055016;28;20056;-80
2021/09/25 01:30:18;;;;;;;10.40;5.32;;;;;;;8.95;98.93;99171.38;5054874;28;20044;-80
2021/09/25 01:32:47;;;;;;;7.75;5.05;;;;;;;8.78;99.40;99163.31;5054653;28;20045;-80
2021/09/25 01:35:16;;;;;;;7.00;4.95;;;;;;;8.60;99.17;99147.25;5053960;28;20459;-80
2021/09/25 01:37:44;;;;;;;8.13;4.88;;;;;;;8.66;98.98;99156.56;5054680;28;20082;-80
2021/09/25 01:40:14;;;;;;;8.82;5.65;;;;;;;8.71;100.00;99148.75;5054239;28;20045;-80
2021/09/25 01:42:40;;;;;;;7.60;5.13;;;;;;;8.64;100.00;99145.03;5054456;28;20481;-80
2021/09/25 01:45:08;;;;;;;10.88;5.70;;;;;;;8.59;100.00;99140.13;5054264;28;20053;-80
2021/09/25 01:47:35;;;;;;;9.30;4.97;;;;;;;8.46;100.00;99137.97;5054047;28;20060;-80
2021/09/25 01:50:05;;;;;;;7.78;5.05;;;;;;;8.42;100.00;99154.72;5054231;28;20041;-79
2021/09/25 01:52:31;;;;;;;8.40;5.33;;;;;;;8.70;100.00;99162.47;5053724;28;20065;-79
2021/09/25 01:54:58;;;;;;;6.43;4.95;;;;;;;8.62;100.00;99166.88;5054016;28;20492;-80
2021/09/25 01:57:27;;;;;;;8.25;4.72;;;;;;;8.57;100.00;99150.31;5053772;28;20053;-79
2021/09/25 01:59:53;;;;;;;6.90;5.28;;;;;;;8.59;100.00;99159.09;5054164;28;20084;-80
2021/09/25 02:02:20;;;;;;;9.07;5.43;;;;;;;8.56;100.00;99154.03;5054165;28;20061;-79
2021/09/25 02:04:48;;;;;;;7.65;4.75;;;;;;;8.68;100.00;99168.91;5053459;28;20053;-79
2021/09/25 02:07:16;;;;;;;7.15;4.85;;;;;;;8.62;100.00;99138.94;5054121;28;20473;-79
2021/09/25 02:09:42;;;;;;;8.20;4.85;;;;;;;8.55;100.00;99152.34;5053617;28;20477;-79
2021/09/25 02:12:09;;;;;;;8.45;5.00;;;;;;;8.54;99.94;99156.06;5054131;28;20496;-79
2021/09/25 02:14:38;;;;;;;9.40;5.28;;;;;;;8.42;99.33;99139.28;5052631;28;20049;-79
2021/09/25 02:17:05;;;;;;;9.43;4.45;;;;;;;8.43;100.00;99170.78;5053844;28;20111;-79
2021/09/25 02:19:32;;;;;;;7.00;4.53;;;;;;;8.32;100.00;99171.13;5053480;28;20049;-79
2021/09/25 02:21:59;;;;;;;6.72;4.57;;;;;;;8.29;100.00;99188.56;5053731;28;20064;-79
2021/09/25 02:24:26;;;;;;;11.23;4.72;;;;;;;8.22;100.00;99160.47;5053376;28;20049;-79
2021/09/25 02:26:53;;;;;;;9.68;5.15;;;;;;;8.33;99.89;99183.66;5053403;28;20090;-79
2021/09/25 02:29:20;;;;;;;12.80;5.78;;;;;;;8.29;100.00;99187.72;5052776;28;20459;-79
2021/09/25 02:31:48;;;;;;;5.97;4.43;;;;;;;8.24;100.00;99177.41;5053496;28;20428;-79
2021/09/25 02:34:16;;;;;;;13.20;5.47;;;;;;;8.03;100.00;99167.06;5053478;28;20079;-80
2021/09/25 02:36:43;;;;;;;7.35;5.30;;;;;;;7.95;100.00;99170.63;5052750;28;20429;-79
2021/09/25 02:39:10;;;;;;;7.88;5.68;;;;;;;7.80;100.00;99156.91;5053441;28;20076;-80
2021/09/25 02:41:37;;;;;;;9.98;5.82;;;;;;;7.90;100.00;99161.31;5053056;28;20044;-80
2021/09/25 02:44:04;;;;;;;8.30;5.50;;;;;;;7.90;100.00;99151.34;5053528;28;20130;-80
2021/09/25 02:46:31;;;;;;;7.68;4.80;;;;;;;7.94;100.00;99146.44;5051846;28;20052;-80
2021/09/25 02:48:59;;;;;;;9.43;5.15;;;;;;;8.16;100.00;99166.56;5053598;28;20049;-79
2021/09/25 02:51:26;;;;;;;10.20;5.25;;;;;;;8.24;100.00;99161.16;5053015;28;20056;-79
2021/09/25 02:53:52;;;;;;;10.23;4.93;;;;;;;8.20;100.00;99161.66;5052924;28;20048;-79
2021/09/25 02:56:19;;;;;;;11.52;4.80;;;;;;;8.27;100.00;99166.22;5052725;28;20057;-79
2021/09/25 02:58:46;;;;;;;9.27;5.30;;;;;;;7.98;100.00;99162.16;5052794;28;20099;-79
2021/09/25 03:01:13;;;;;;;9.23;5.35;;;;;;;7.90;100.00;99169.41;5052910;28;20052;-79
2021/09/25 03:03:40;;;;;;;9.07;5.13;;;;;;;7.78;100.00;99158.94;5052834;28;20420;-79
2021/09/25 03:06:08;;;;;;;7.88;5.15;;;;;;;7.71;100.00;99140.84;5052416;28;20048;-80
2021/09/25 03:08:35;;;;;;;9.25;5.03;;;;;;;7.76;100.00;99154.69;5052597;28;20471;-79
2021/09/25 03:11:01;;;;;;;9.32;4.85;;;;;;;7.71;100.00;99152.50;5052787;28;20053;-79
2021/09/25 03:13:28;;;;;;;8.48;5.20;;;;;;;7.56;100.00;99143.34;5052312;28;20052;-79
2021/09/25 03:15:55;;;;;;;7.82;5.78;;;;;;;7.65;100.00;99161.28;5052443;28;20045;-80
2021/09/25 03:18:22;;;;;;;7.43;5.15;;;;;;;7.65;100.00;99155.88;5052894;28;20053;-79
2021/09/25 03:20:49;;;;;;;13.43;5.78;;;;;;;7.63;100.00;99163.28;5052365;28;20566;-79
2021/09/25 03:23:17;;;;;;;9.48;5.55;;;;;;;7.64;100.00;99164.16;5052611;28;20056;-79
2021/09/25 03:25:43;;;;;;;7.40;5.03;;;;;;;7.54;100.00;99139.94;5052355;28;20049;-79
2021/09/25 03:28:11;;;;;;;9.90;5.50;;;;;;;7.78;100.00;99150.81;5051870;28;20045;-79
2021/09/25 03:30:38;;;;;;;12.23;5.22;;;;;;;7.77;100.00;99149.13;5052595;28;20136;-79
2021/09/25 03:33:05;;;;;;;9.02;5.00;;;;;;;7.61;100.00;99114.75;5052552;28;20068;-79
2021/09/25 03:35:33;;;;;;;9.45;5.57;;;;;;;7.80;100.00;99134.41;5051227;28;20133;-79
2021/09/25 03:38:01;;;;;;;7.60;5.32;;;;;;;7.73;100.00;99120.69;5052399;28;20045;-79
2021/09/25 03:40:30;;;;;;;7.65;5.15;;;;;;;7.72;100.00;99121.72;5052011;28;20102;-79
2021/09/25 03:42:56;;;;;;;9.90;5.25;;;;;;;7.79;100.00;99132.72;5051897;28;20052;-79
2021/09/25 03:45:23;;;;;;;8.65;5.05;;;;;;;7.68;100.00;99117.66;5051752;28;20056;-79
2021/09/25 03:47:55;;;;;;;10.55;5.28;;;;;;;7.76;100.00;99133.88;5052166;28;20049;-79
2021/09/25 03:50:22;;;;;;;8.55;5.32;;;;;;;7.78;100.00;99120.19;5051896;28;20591;-78
2021/09/25 03:52:48;;;;;;;8.80;5.20;;;;;;;7.79;100.00;99111.91;5052270;28;20045;-79
2021/09/25 03:55:15;;;;;;;9.73;5.93;;;;;;;7.74;100.00;99121.56;5051585;28;20053;-79
2021/09/25 03:57:43;;;;;;;12.15;5.80;;;;;;;7.87;100.00;99130.00;5052123;28;20098;-79
2021/09/25 04:00:12;;;;;;;13.98;5.95;;;;;;;7.76;100.00;99125.75;5052213;28;20071;-79
2021/09/25 04:02:39;;;;;;;7.68;5.30;;;;;;;7.51;100.00;99110.50;5051553;28;20049;-79
2021/09/25 04:05:07;;;;;;;10.93;5.10;;;;;;;7.50;100.00;99136.72;5052148;28;20064;-79
2021/09/25 04:07:34;;;;;;;8.85;5.35;;;;;;;7.39;100.00;99112.69;5052063;28;20068;-79
2021/09/25 04:10:01;;;;;;;7.00;4.80;;;;;;;7.43;100.00;99125.72;5051960;28;20119;-79
2021/09/25 04:12:28;;;;;;;7.28;5.53;;;;;;;7.47;100.00;99138.91;5051592;28;20095;-79
2021/09/25 04:14:56;;;;;;;8.00;4.82;;;;;;;7.51;100.00;99132.16;5051521;28;20095;-79
2021/09/25 04:17:22;;;;;;;9.73;5.55;;;;;;;7.61;100.00;99151.78;5051678;28;20045;-79
2021/09/25 04:19:49;;;;;;;14.13;5.72;;;;;;;7.44;100.00;99143.63;5051605;28;20060;-79
2021/09/25 04:22:16;;;;;;;11.35;5.72;;;;;;;7.43;100.00;99147.34;5051519;28;20524;-79
2021/09/25 04:24:43;;;;;;;7.47;5.20;;;;;;;7.54;100.00;99158.88;5051446;28;20481;-78
2021/09/25 04:27:10;;;;;;;8.65;5.22;;;;;;;7.32;100.00;99133.31;5052571;28;20135;-79
2021/09/25 04:29:37;;;;;;;9.48;5.30;;;;;;;7.26;100.00;99142.91;5051509;28;20049;-79
2021/09/25 04:32:06;;;;;;;11.00;5.13;;;;;;;7.25;100.00;99141.22;5051955;28;20060;-80
2021/09/25 04:34:33;;;;;;;11.07;5.03;;;;;;;7.11;100.00;99144.56;5051506;28;20049;-78
2021/09/25 04:37:00;;;;;;;9.05;4.85;;;;;;;6.94;100.00;99130.13;5050637;28;20049;-78
2021/09/25 04:39:27;;;;;;;9.07;5.63;;;;;;;6.95;100.00;99140.75;5051918;28;20049;-79
2021/09/25 04:41:54;;;;;;;8.55;5.22;;;;;;;6.89;100.00;99144.97;5051329;28;20041;-78
2021/09/25 04:44:21;;;;;;;9.52;5.20;;;;;;;6.80;100.00;99136.97;5051522;28;20064;-79
2021/09/25 04:46:48;;;;;;;7.03;5.00;;;;;;;6.93;100.00;99133.84;5051283;28;20057;-78
2021/09/25 04:49:16;;;;;;;8.85;5.43;;;;;;;6.98;100.00;99134.19;5051797;28;20115;-79
2021/09/25 04:51:43;;;;;;;9.20;5.75;;;;;;;6.99;100.00;99144.84;5050650;28;20053;-78
2021/09/25 04:54:10;;;;;;;8.95;5.80;;;;;;;7.09;100.00;99131.19;5054830;28;20455;-80
2021/09/25 04:56:37;;;;;;;9.02;5.90;;;;;;;6.95;100.00;99134.53;5055047;28;20048;-79
2021/09/25 04:59:04;;;;;;;11.05;5.55;;;;;;;7.05;100.00;99146.88;5055383;28;20064;-79
2021/09/25 05:01:31;;;;;;;11.27;5.88;;;;;;;6.95;100.00;99148.88;5055024;28;20048;-79
2021/09/25 05:04:00;;;;;;;9.93;7.00;;;;;;;7.02;100.00;99162.59;5054929;28;20077;-79
2021/09/25 05:06:29;;;;;;;9.25;5.45;;;;;;;7.03;100.00;99167.84;5054984;28;20079;-79
2021/09/25 05:08:56;;;;;;;8.25;5.28;;;;;;;7.04;100.00;99142.47;5051264;28;20055;-79
2021/09/25 05:11:24;;;;;;;8.95;5.43;;;;;;;7.19;100.00;99166.22;5046367;28;20049;-79
2021/09/25 05:13:51;;;;;;;8.60;6.20;;;;;;;7.14;100.00;99168.56;5046229;28;20107;-79
2021/09/25 05:16:18;;;;;;;7.78;5.60;;;;;;;6.88;100.00;99145.97;5054712;28;20053;-79
2021/09/25 05:18:44;;;;;;;8.88;5.93;;;;;;;6.72;100.00;99151.28;5054195;28;20049;-79
2021/09/25 05:21:11;;;;;;;10.23;6.07;;;;;;;6.57;100.00;99145.63;5054866;28;20049;-79
2021/09/25 05:23:40;;;;;;;12.75;6.32;;;;;;;6.77;100.00;99170.56;5054765;28;20040;-79
2021/09/25 05:26:07;;;;;;;9.85;5.80;;;;;;;6.79;100.00;99163.16;5054521;28;20056;-79
2021/09/25 05:28:34;;;;;;;8.05;5.25;;;;;;;6.72;100.00;99168.34;5055068;28;20053;-79
2021/09/25 05:31:00;;;;;;;10.48;5.30;;;;;;;6.78;100.00;99179.53;5054722;28;20045;-79
2021/09/25 05:33:27;;;;;;;14.00;8.40;;;;;;;6.89;100.00;99180.13;5054405;28;20052;-79
2021/09/25 05:35:54;;;;;;;11.75;6.70;;;;;;;6.89;100.00;99165.72;5053443;28;20412;-79
2021/09/25 05:38:21;;;;;;;10.18;6.60;;;;;;;7.03;100.00;99178.66;5054357;28;20060;-79
2021/09/25 05:40:49;;;;;;;9.93;6.45;;;;;;;7.13;100.00;99164.16;5054789;28;20110;-78
2021/09/25 05:43:16;;;;;;;13.90;7.00;;;;;;;7.06;100.00;99153.13;5054766;28;20037;-79
2021/09/25 05:45:44;;;;;;;18.05;6.88;;;;;;;7.01;100.00;99161.72;5054002;28;20481;-78
2021/09/25 05:48:10;;;;;;;10.75;5.88;;;;;;;6.88;100.00;99148.69;5054069;28;20087;-80
2021/09/25 05:50:37;;;;;;;9.63;5.72;;;;;;;7.07;100.00;99173.75;5054616;28;20493;-80
2021/09/25 05:53:04;;;;;;;9.68;5.00;;;;;;;7.02;100.00;99157.19;5053981;28;20136;-80
2021/09/25 05:55:31;;;;;;;8.80;5.95;;;;;;;7.18;100.00;99165.38;5054337;28;20045;-79
2021/09/25 05:58:01;;;;;;;8.20;5.72;;;;;;;7.36;100.00;99159.00;5053837;28;20053;-79
2021/09/25 06:00:29;;;;;;;9.02;6.38;;;;;;;7.40;100.00;99147.69;5053984;28;20045;-80
2021/09/25 06:02:57;;;;;;;8.50;5.55;;;;;;;7.42;100.00;99140.25;5053974;28;20052;-81
2021/09/25 06:05:24;;;;;;;10.55;6.00;;;;;;;7.42;100.00;99142.97;5052852;28;20056;-80
2021/09/25 06:07:51;;;;;;;8.80;5.63;;;;;;;7.53;100.00;99135.56;5053416;28;20052;-80
2021/09/25 06:10:18;;;;;;;8.45;5.75;;;;;;;7.79;100.00;99160.59;5054030;28;20073;-80
2021/09/25 06:12:45;;;;;;;11.00;6.15;;;;;;;7.88;100.00;99160.63;5053899;28;20049;-80
2021/09/25 06:15:13;;;;;;;10.20;6.18;;;;;;;7.92;100.00;99172.81;5052963;28;20056;-80
2021/09/25 06:17:41;;;;;;;11.05;6.47;;;;;;;7.96;100.00;99164.19;5053638;28;20045;-80
2021/09/25 06:20:09;;;;;;;11.95;6.72;;;;;;;7.93;100.00;99160.97;5054060;28;20049;-81
2021/09/25 06:22:36;;;;;;;10.70;6.97;;;;;;;7.88;100.00;99145.22;5053685;28;20516;-81
2021/09/25 06:25:04;;;;;;;11.00;6.68;;;;;;;7.92;100.00;99153.88;5053578;28;20045;-80
2021/09/25 06:27:31;;;;;;;12.68;7.05;;;;;;;8.02;100.00;99141.00;5053430;28;20045;-80
2021/09/25 06:29:57;;;;;;;9.55;6.55;;;;;;;8.09;100.00;99154.72;5053240;28;20103;-80
2021/09/25 06:32:26;;;;;;;11.57;6.25;;;;;;;8.07;100.00;99138.66;5052679;28;20451;-81
2021/09/25 06:34:53;;;;;;;14.10;7.32;;;;;;;8.20;100.00;99140.00;5052883;28;20052;-81
2021/09/25 06:38:08;;;;;;;11.30;6.82;;;;;;;8.29;100.00;99147.94;5051676;28;20040;-81
2021/09/25 06:43:40;;;;;;;11.60;7.97;;;;;;;8.54;100.00;99139.81;4982807;28;20061;-81
2021/09/25 06:46:07;;;;;;;13.32;8.32;;;;;;;8.77;100.00;99149.91;5041159;28;20079;-81
2021/09/25 06:48:35;;;;;;;13.60;8.50;;;;;;;9.00;100.00;99160.84;5052775;28;20135;-81
2021/09/25 06:51:02;;;;;;;20.80;8.95;;;;;;;9.02;100.00;99150.69;5053148;28;20059;-81
2021/09/25 06:53:29;;;;;;;17.98;8.95;;;;;;;9.09;100.00;99138.09;5052796;28;20049;-81
2021/09/25 06:55:56;;;;;;;13.23;9.25;;;;;;;9.28;100.00;99155.81;5052253;28;20110;-81
2021/09/25 06:58:23;;;;;;;15.75;9.48;;;;;;;9.26;100.00;99138.03;5051996;28;20049;-81
2021/09/25 07:00:50;;;;;;;15.77;11.18;;;;;;;9.41;100.00;99138.13;5052477;28;20052;-81
2021/09/25 07:03:19;;;;;;;18.77;9.90;;;;;;;9.65;100.00;99153.41;5053149;28;20053;-82
2021/09/25 07:05:48;;;;;;;14.52;8.82;;;;;;;9.82;100.00;99140.59;5053738;28;20057;-81
2021/09/25 07:08:15;;;;;;;11.15;8.48;;;;;;;9.95;100.00;99154.41;5053057;28;20072;-81
2021/09/25 07:10:42;;;;;;;14.82;8.05;;;;;;;10.10;100.00;99154.44;5052404;28;20044;-81
2021/09/25 07:13:09;;;;;;;11.75;8.43;;;;;;;10.25;100.00;99173.50;5053155;28;20049;-81
2021/09/25 07:15:40;;;;;;;11.98;8.85;;;;;;;10.32;100.00;99160.06;5052947;28;20044;-80
2021/09/25 07:18:20;;;;;;;13.77;9.73;;;;;;;10.50;100.00;99160.59;5053782;28;20142;-81
2021/09/25 07:20:51;;;;;;;12.30;8.25;;;;;;;10.75;100.00;99168.53;5054211;28;20053;-80
2021/09/25 07:23:19;;;;;;;12.68;8.48;;;;;;;10.86;100.00;99168.06;5051622;28;20106;-80
2021/09/25 07:50:15;;;;;;;15.02;7.40;;;;;;;13.02;100.00;99170.09;4918392;29;20062;-81
2021/09/25 07:53:22;;;;;;;;;;;;;;;;;;;;;
2021/09/25 07:55:52;;;;;;;11.45;6.82;;;;;;;13.40;98.33;99156.88;4942621;28;20073;-81
2021/09/25 07:58:19;;;;;;;;;;;;;;;13.58;97.25;99167.25;4987291;28;20043;-80
2021/09/25 08:00:47;;;;;;;8.88;6.18;;;;;;;13.66;97.02;99165.41;5001965;28;20289;-80
2021/09/25 08:03:13;;;;;;;9.63;6.18;;;;;;;13.77;95.39;99170.25;5050322;28;20106;-80
2021/09/25 08:05:41;;;;;;;12.25;5.93;;;;;;;13.96;96.15;99183.13;5050740;28;20100;-80
2021/09/25 08:08:10;;;;;;;11.13;6.90;;;;;;;14.01;95.33;99177.03;5051386;28;20107;-80
2021/09/25 08:10:40;;;;;;;9.38;5.95;;;;;;;14.10;93.57;99174.97;5051381;28;20041;-80
2021/09/25 08:13:08;;;;;;;9.45;6.13;;;;;;;14.11;93.68;99176.66;5052739;28;20480;-80
2021/09/25 08:15:36;;;;;;;9.07;5.82;;;;;;;14.19;91.78;99176.44;5052562;28;20049;-80
2021/09/25 08:18:03;;;;;;;8.82;5.95;;;;;;;14.29;94.11;99167.84;5052981;28;20662;-80
2021/09/25 08:20:33;;;;;;;7.82;5.13;;;;;;;14.32;92.62;99161.97;5049536;28;20546;-81
2021/09/25 08:23:02;;;;;;;7.97;5.60;;;;;;;14.48;93.73;99171.63;5042661;28;20060;-81
2021/09/25 08:25:30;;;;;;;10.02;5.60;;;;;;;14.60;92.11;99171.84;5050738;28;20084;-81
2021/09/25 08:27:57;;;;;;;7.78;5.65;;;;;;;14.66;89.74;99165.53;5052975;28;20071;-81
2021/09/25 08:30:25;;;;;;;6.78;5.30;;;;;;;14.74;89.74;99169.97;5055267;28;20041;-81
2021/09/25 08:32:51;;;;;;;8.07;4.90;;;;;;;14.75;88.39;99169.75;5054919;28;20053;-81
2021/09/25 08:35:18;;;;;;;9.05;5.07;;;;;;;14.88;89.71;99152.47;5054914;28;20053;-81
2021/09/25 08:37:45;;;;;;;7.63;5.38;;;;;;;15.11;87.42;99159.38;5055456;28;20040;-81
2021/09/25 08:40:19;;;;;;;8.55;5.60;;;;;;;15.25;88.46;99151.97;5054508;28;20053;-81
2021/09/25 08:42:46;;;;;;;8.27;6.03;;;;;;;15.25;88.21;99151.97;5055331;28;20087;-81
2021/09/25 08:45:13;;;;;;;8.73;5.35;;;;;;;15.34;87.24;99156.13;5054910;28;20451;-81
2021/09/25 08:47:40;;;;;;;11.50;5.75;;;;;;;15.48;87.29;99168.75;5054435;28;20577;-81
2021/09/25 08:50:09;;;;;;;12.10;5.32;;;;;;;15.57;87.00;99159.22;5055293;28;20131;-81
2021/09/25 08:52:36;;;;;;;7.20;5.65;;;;;;;15.60;86.74;99149.72;5055457;28;20053;-80
2021/09/25 08:55:04;;;;;;;10.70;5.57;;;;;;;15.72;84.08;99150.72;5053411;28;20412;-80
2021/09/25 08:57:32;;;;;;;6.93;4.72;;;;;;;15.68;82.22;99137.66;5052823;28;20451;-80
2021/09/25 09:00:26;;;;;;;7.97;5.38;;;;;;;15.84;82.36;99150.06;5055264;28;20041;-81
2021/09/25 09:02:53;;;;;;;9.68;5.28;;;;;;;15.92;83.20;99152.53;5054729;28;20052;-81
2021/09/25 09:05:28;;;;;;;10.10;5.95;;;;;;;16.05;83.54;99152.44;5054272;28;20095;-81
2021/09/25 09:07:56;;;;;;;11.70;5.18;;;;;;;16.19;84.23;99153.19;5054869;28;20475;-81
2021/09/25 09:10:27;;;;;;;10.13;5.78;;;;;;;16.27;82.69;99149.34;5054831;28;20071;-80
2021/09/25 09:12:56;;;;;;;9.57;5.60;;;;;;;16.32;83.43;99146.78;5052871;28;20063;-80
2021/09/25 09:15:31;;;;;;;7.97;5.75;;;;;;;16.36;82.44;99144.41;5052084;28;20045;-80
2021/09/25 09:18:00;;;;;;;9.85;5.53;;;;;;;16.43;81.60;99134.25;5053279;28;20049;-80
2021/09/25 09:20:27;;;;;;;13.23;5.72;;;;;;;16.44;80.91;99127.69;5054614;28;20068;-80
2021/09/25 09:23:12;;;;;;;8.02;5.88;;;;;;;16.46;81.36;99122.81;5054415;28;20516;-82
2021/09/25 09:25:39;;;;;;;8.43;5.40;;;;;;;16.56;83.35;99125.03;5034033;28;20064;-81
2021/09/25 09:28:11;;;;;;;7.00;5.03;;;;;;;16.77;81.73;99134.75;5034628;28;20180;-82
2021/09/25 09:30:47;;;;;;;7.47;5.35;;;;;;;16.83;81.13;99105.56;5034531;28;20065;-82
2021/09/25 09:33:28;;;;;;;8.70;4.75;;;;;;;17.05;79.74;99123.31;5033911;28;20145;-82
2021/09/25 09:35:55;;;;;;;9.52;5.35;;;;;;;17.09;78.25;99129.22;5039437;28;20107;-82
2021/09/25 09:38:23;;;;;;;7.90;4.43;;;;;;;17.05;79.68;99122.47;5053922;28;20400;-82
2021/09/25 09:40:53;;;;;;;8.73;6.40;;;;;;;17.18;81.44;99125.09;5051906;28;20057;-83
2021/09/25 09:43:21;;;;;;;11.65;5.70;;;;;;;17.28;80.09;99124.53;5054186;28;20049;-82
2021/09/25 09:45:48;;;;;;;8.10;5.28;;;;;;;17.41;79.76;99123.53;5053776;28;20363;-82
2021/09/25 09:51:07;;;;;;;9.63;5.28;;;;;;;17.54;78.35;99097.78;5053169;28;20049;-82
2021/09/25 09:53:49;;;;;;;;;;;;;;;17.73;78.73;99115.91;5054599;28;20056;-83
2021/09/25 09:56:23;;;;;;;7.18;4.95;;;;;;;17.79;79.12;99114.16;5053460;28;19925;-82
2021/09/25 09:59:04;;;;;;;9.85;6.05;;;;;;;17.86;78.28;99114.91;5053956;28;20390;-82
2021/09/25 10:02:01;;;;;;;12.55;6.18;;;;;;;17.88;78.70;99104.50;5053304;28;20049;-82
2021/09/25 10:04:46;;;;;;;8.07;5.35;;;;;;;17.94;77.74;99100.00;5053790;28;20072;-82
2021/09/25 10:07:24;;;;;;;8.73;4.85;;;;;;;17.97;79.04;99091.28;5053305;28;20052;-82
2021/09/25 10:09:53;;;;;;;9.07;5.38;;;;;;;18.19;78.27;99108.91;5053885;28;20395;-82
2021/09/25 10:12:26;;;;;;;10.02;5.35;;;;;;;18.12;77.33;99097.19;5053534;28;20056;-82
2021/09/25 10:15:05;;;;;;;8.02;5.65;;;;;;;18.28;77.58;99114.91;5051552;28;20084;-83
2021/09/25 10:17:32;;;;;;;10.85;5.57;;;;;;;18.43;77.50;99105.34;5053259;28;20565;-82
2021/09/25 10:20:03;;;;;;;12.98;6.05;;;;;;;18.52;77.92;99102.03;5052850;28;20052;-82
2021/09/25 10:22:33;;;;;;;11.73;5.72;;;;;;;18.73;77.98;99095.09;5053871;28;20053;-82
2021/09/25 10:25:02;;;;;;;13.02;5.65;;;;;;;18.83;76.18;99093.63;5052820;28;20063;-83
2021/09/25 10:27:38;;;;;;;10.40;6.05;;;;;;;18.90;76.68;99088.88;5052889;28;20061;-82
2021/09/25 10:32:54;;;;;;;5.63;4.95;;;;;;;19.15;75.41;99085.84;5053940;28;20488;-84
2021/09/25 10:35:26;;;;;;;7.70;4.95;;;;;;;19.20;73.63;99087.88;5051938;28;20052;-84
2021/09/25 10:38:00;;;;;;;8.15;5.75;;;;;;;19.13;74.77;99073.38;5053109;28;20049;-83
2021/09/25 10:40:29;;;;;;;9.55;5.13;;;;;;;19.32;75.33;99094.19;5053503;28;20074;-83
2021/09/25 10:43:06;;;;;;;10.00;5.40;;;;;;;19.33;73.08;99084.00;5053063;28;20124;-83
2021/09/25 10:45:37;;;;;;;11.40;6.78;;;;;;;19.31;73.54;99067.69;5052854;28;20076;-84
2021/09/25 10:50:57;;;;;;;6.78;5.00;;;;;;;19.75;72.15;99069.91;5052628;28;20095;-83
2021/09/25 10:53:32;;;;;;;9.07;4.93;;;;;;;19.84;72.06;99076.72;5052567;28;20075;-84
2021/09/25 10:56:05;;;;;;;7.32;5.25;;;;;;;19.84;71.27;99065.69;5052594;28;20281;-84
2021/09/25 10:58:39;;;;;;;6.95;5.03;;;;;;;20.04;72.75;99068.00;5052721;28;20524;-84
2021/09/25 11:01:20;;;;;;;8.25;5.10;;;;;;;20.08;71.55;99058.16;5050799;28;20056;-84
2021/09/25 11:04:20;;;;;;;7.65;4.55;;;;;;;20.18;72.94;99056.66;5052941;28;20055;-84
2021/09/25 11:06:51;;;;;;;5.88;4.72;;;;;;;20.40;71.01;99065.84;5040470;28;20078;-84
2021/09/25 11:09:30;;;;;;;9.50;4.82;;;;;;;20.51;69.06;99069.59;5052591;28;20080;-84
2021/09/25 11:11:58;;;;;;;8.18;4.78;;;;;;;20.50;68.02;99056.88;5052688;28;20053;-84
2021/09/25 11:14:28;;;;;;;14.50;4.78;;;;;;;20.55;67.58;99058.88;5052365;28;20045;-84
2021/09/25 11:17:11;;;;;;;7.05;4.88;;;;;;;20.57;67.85;99046.47;5051575;28;20060;-84
2021/09/25 11:19:46;;;;;;;6.03;4.75;;;;;;;20.70;67.03;99039.81;5050832;28;20550;-83
2021/09/25 11:22:17;;;;;;;8.10;4.53;;;;;;;20.71;67.68;99043.41;5052458;28;20139;-84
2021/09/25 11:24:47;;;;;;;5.97;3.67;;;;;;;20.72;67.36;99045.91;5052190;28;20052;-84
2021/09/25 11:27:17;;;;;;;8.38;4.93;;;;;;;20.92;67.85;99048.09;5051895;28;20053;-84
2021/09/25 11:29:55;;;;;;;6.65;4.25;;;;;;;20.97;67.14;99036.28;5052419;28;20114;-84
2021/09/25 11:32:26;;;;;;;6.20;4.35;;;;;;;21.16;66.57;99037.63;5051547;28;20045;-84
2021/09/25 11:34:54;;;;;;;6.88;4.30;;;;;;;21.39;66.30;99044.84;5051877;28;20447;-84
2021/09/25 11:37:22;;;;;;;9.57;4.50;;;;;;;21.49;68.96;99032.22;5051375;28;20052;-84
2021/09/25 11:39:51;;;;;;;6.07;4.40;;;;;;;21.62;66.63;99044.81;5052707;28;20041;-84
2021/09/25 11:42:27;;;;;;;9.90;4.15;;;;;;;21.62;64.47;99042.91;5051935;28;20044;-83
2021/09/25 11:44:59;;;;;;;9.68;4.47;;;;;;;21.58;63.92;99021.56;5051435;28;20489;-83
2021/09/25 11:47:35;;;;;;;5.72;4.00;;;;;;;21.83;63.81;99037.56;5051949;28;20057;-83
2021/09/25 11:50:13;;;;;;;7.72;3.70;;;;;;;21.99;63.37;99042.13;5051562;28;20053;-84
2021/09/25 11:52:41;;;;;;;6.38;4.15;;;;;;;22.05;63.89;99037.50;5050659;28;20063;-83
2021/09/25 11:55:09;;;;;;;6.55;4.03;;;;;;;22.14;63.61;99022.06;5051495;28;20325;-85
2021/09/25 11:57:36;;;;;;;6.25;4.38;;;;;;;22.18;61.91;99023.19;5051916;28;20234;-84
2021/09/25 12:00:18;;;;;;;8.68;3.83;;;;;;;22.26;59.49;99030.19;5052127;28;20503;-84
2021/09/25 12:02:48;;;;;;;4.43;3.83;;;;;;;22.27;58.27;99013.31;5050834;28;20056;-84
2021/09/25 12:05:33;;;;;;;4.10;3.65;;;;;;;22.44;57.03;99027.00;5051800;28;20051;-84
2021/09/25 12:08:03;;;;;;;6.80;3.70;;;;;;;22.41;58.62;99022.00;5052139;28;20083;-84
2021/09/25 12:10:32;;;;;;;6.30;3.95;;;;;;;22.53;57.51;99015.44;5051484;28;20080;-83
2021/09/25 12:13:02;;;;;;;5.25;3.67;;;;;;;22.62;56.39;99019.38;5051614;28;20194;-84
2021/09/25 12:15:32;;;;;;;9.57;4.47;;;;;;;22.56;56.62;98995.53;5051106;28;20059;-84
2021/09/25 12:18:17;;;;;;;;;;;;;;;22.69;57.00;99008.03;5052320;28;20055;-84
2021/09/25 12:20:49;;;;;;;6.07;3.58;;;;;;;22.75;55.82;98987.59;5051605;28;19928;-84